Time;durP1;ratioP1;P1;durP2;ratioP2;P2;SDS_P1;SDS_P2;PMS_P1;PMS_P2;Temp;Humidity;BMP_temperature;BMP_pressure;BME280_temperature;BME280_humidity;BME280_pressure;Samples;Min_cycle;Max_cycle;Signal;HPM_P1;HPM_P2
2024/01/05 00:00:19;;;;;;;12.35;2.92;;;;;;;;;;5056889;28;20049;-69
2024/01/05 00:02:45;;;;;;;11.77;3.70;;;;;;;;;;5054940;28;20044;-69
2024/01/05 00:05:13;;;;;;;11.00;3.17;;;;;;;;;;5058304;28;20550;-68
2024/01/05 00:07:40;;;;;;;10.02;3.13;;;;;;;;;;5061607;28;20052;-69
2024/01/05 00:10:07;;;;;;;8.82;2.78;;;;;;;;;;5065560;28;20049;-69
2024/01/05 00:12:33;;;;;;;9.63;3.65;;;;;;;;;;5062448;28;20048;-69
2024/01/05 00:15:00;;;;;;;9.30;2.90;;;;;;;;;;5054491;28;20515;-69
2024/01/05 00:17:26;;;;;;;9.80;2.95;;;;;;;;;;5051021;28;20057;-69
2024/01/05 00:19:52;;;;;;;7.47;3.33;;;;;;;;;;5062710;28;20511;-69
2024/01/05 00:22:21;;;;;;;8.20;2.63;;;;;;;;;;5066463;28;20268;-69
2024/01/05 00:24:47;;;;;;;7.15;2.78;;;;;;;;;;5065589;28;20041;-69
2024/01/05 00:27:15;;;;;;;10.68;3.40;;;;;;;;;;5054270;28;20515;-69
2024/01/05 00:29:41;;;;;;;9.10;3.03;;;;;;;;;;5057480;28;20515;-69
2024/01/05 00:32:07;;;;;;;8.07;2.65;;;;;;;;;;5062744;28;20040;-69
2024/01/05 00:34:34;;;;;;;8.25;2.90;;;;;;;;;;5059276;28;20056;-69
2024/01/05 00:37:01;;;;;;;6.72;3.03;;;;;;;;;;5058480;28;20048;-69
2024/01/05 00:39:28;;;;;;;9.63;2.50;;;;;;;;;;5060085;28;20497;-69
2024/01/05 00:41:55;;;;;;;9.15;2.88;;;;;;;;;;5054301;28;20563;-69
2024/01/05 00:44:21;;;;;;;8.02;2.60;;;;;;;;;;5061220;28;20277;-69
2024/01/05 00:46:48;;;;;;;10.35;3.10;;;;;;;;;;5057348;28;20080;-68
2024/01/05 00:49:14;;;;;;;9.43;3.85;;;;;;;;;;5062443;28;20051;-69
2024/01/05 00:51:40;;;;;;;10.10;3.10;;;;;;;;;;5056087;28;20055;-69
2024/01/05 00:54:07;;;;;;;10.68;2.92;;;;;;;;;;5053685;28;20535;-69
2024/01/05 00:56:35;;;;;;;11.35;2.97;;;;;;;;;;5058640;28;20041;-69
2024/01/05 00:59:01;;;;;;;10.52;2.50;;;;;;;;;;5054368;28;20136;-69
2024/01/05 01:01:27;;;;;;;11.57;2.83;;;;;;;;;;5054566;28;20401;-68
2024/01/05 01:03:54;;;;;;;9.27;3.00;;;;;;;;;;5058660;28;20087;-69
2024/01/05 01:06:20;;;;;;;10.55;2.85;;;;;;;;;;5058859;28;20040;-69
2024/01/05 01:08:46;;;;;;;7.28;2.40;;;;;;;;;;5059096;28;20051;-69
2024/01/05 01:11:13;;;;;;;6.05;2.20;;;;;;;;;;5054733;28;20048;-69
2024/01/05 01:13:41;;;;;;;10.00;2.88;;;;;;;;;;5064178;28;20066;-69
2024/01/05 01:16:07;;;;;;;8.30;2.78;;;;;;;;;;5052358;28;20055;-69
2024/01/05 01:18:34;;;;;;;9.20;2.63;;;;;;;;;;5059207;28;20050;-69
2024/01/05 01:21:00;;;;;;;8.70;2.45;;;;;;;;;;5063431;28;20511;-69
2024/01/05 01:23:27;;;;;;;7.90;2.50;;;;;;;;;;5059692;28;20060;-69
2024/01/05 01:25:53;;;;;;;6.82;2.45;;;;;;;;;;5053346;28;20048;-68
2024/01/05 01:28:19;;;;;;;8.80;2.85;;;;;;;;;;5064103;28;20489;-69
2024/01/05 01:30:47;;;;;;;6.20;2.13;;;;;;;;;;5058714;28;20053;-69
2024/01/05 01:33:14;;;;;;;9.95;2.60;;;;;;;;;;5060124;28;20481;-69
2024/01/05 01:35:40;;;;;;;5.85;2.40;;;;;;;;;;5061576;28;20047;-69
2024/01/05 01:38:06;;;;;;;8.07;3.28;;;;;;;;;;5059324;28;20507;-68
2024/01/05 01:40:33;;;;;;;7.43;2.88;;;;;;;;;;5050935;28;20045;-69
2024/01/05 01:42:59;;;;;;;5.90;2.63;;;;;;;;;;5057949;28;20044;-69
2024/01/05 01:45:26;;;;;;;8.73;2.38;;;;;;;;;;5053534;28;20055;-68
2024/01/05 01:47:54;;;;;;;9.18;2.53;;;;;;;;;;5061855;28;20416;-69
2024/01/05 01:50:22;;;;;;;10.65;2.83;;;;;;;;;;5057782;28;20051;-69
2024/01/05 01:52:48;;;;;;;13.02;2.90;;;;;;;;;;5065276;28;20049;-69
2024/01/05 01:55:15;;;;;;;5.15;2.20;;;;;;;;;;5058064;28;20076;-68
2024/01/05 01:57:42;;;;;;;8.25;2.28;;;;;;;;;;5058736;28;20051;-69
2024/01/05 02:00:09;;;;;;;13.55;2.42;;;;;;;;;;5053719;28;20041;-68
2024/01/05 02:02:36;;;;;;;9.15;2.40;;;;;;;;;;5053066;28;20049;-69
2024/01/05 02:05:05;;;;;;;9.50;2.55;;;;;;;;;;5058483;28;20081;-69
2024/01/05 02:07:31;;;;;;;9.13;2.15;;;;;;;;;;5058339;28;20053;-69
2024/01/05 02:09:58;;;;;;;6.90;2.08;;;;;;;;;;5055565;28;20076;-69
2024/01/05 02:12:24;;;;;;;6.72;2.38;;;;;;;;;;5058375;28;20051;-69
2024/01/05 02:14:50;;;;;;;9.30;2.45;;;;;;;;;;5058083;28;20049;-69
2024/01/05 02:17:30;;;;;;;4.95;1.90;;;;;;;;;;5055215;28;20045;-69
2024/01/05 02:19:56;;;;;;;4.50;1.80;;;;;;;;;;5053588;28;20133;-69
2024/01/05 02:22:27;;;;;;;6.97;2.22;;;;;;;;;;5055416;28;20485;-69
2024/01/05 02:24:55;;;;;;;4.97;1.75;;;;;;;;;;5061080;28;20066;-69
2024/01/05 02:27:21;;;;;;;7.43;2.10;;;;;;;;;;5056595;28;20049;-69
2024/01/05 02:29:48;;;;;;;5.72;1.90;;;;;;;;;;5062745;28;20127;-69
2024/01/05 02:32:15;;;;;;;8.15;2.20;;;;;;;;;;5061868;28;20041;-69
2024/01/05 02:34:41;;;;;;;4.65;1.70;;;;;;;;;;5059480;28;20078;-69
2024/01/05 02:37:08;;;;;;;5.13;1.65;;;;;;;;;;5059631;28;20060;-69
2024/01/05 02:39:34;;;;;;;7.43;2.08;;;;;;;;;;5059506;28;20051;-69
2024/01/05 02:42:02;;;;;;;9.63;2.10;;;;;;;;;;5057524;28;20041;-69
2024/01/05 02:44:28;;;;;;;8.07;1.95;;;;;;;;;;5062249;28;20048;-69
2024/01/05 02:46:55;;;;;;;5.03;1.80;;;;;;;;;;5051693;28;20483;-68
2024/01/05 02:49:21;;;;;;;6.55;2.50;;;;;;;;;;5058691;28;20040;-69
2024/01/05 02:51:48;;;;;;;5.65;1.55;;;;;;;;;;5056536;28;20055;-69
2024/01/05 02:54:14;;;;;;;5.47;1.83;;;;;;;;;;5056866;28;20416;-69
2024/01/05 02:56:41;;;;;;;8.18;2.22;;;;;;;;;;5064450;28;20048;-69
2024/01/05 02:59:08;;;;;;;8.05;2.08;;;;;;;;;;5059799;28;20129;-68
2024/01/05 03:01:35;;;;;;;4.85;1.92;;;;;;;;;;5058844;28;20083;-69
2024/01/05 03:04:01;;;;;;;6.90;2.15;;;;;;;;;;5068836;28;20048;-69
2024/01/05 03:06:28;;;;;;;5.57;2.25;;;;;;;;;;5058407;28;20053;-69
2024/01/05 03:08:54;;;;;;;5.82;1.98;;;;;;;;;;5064384;28;20492;-69
2024/01/05 03:11:20;;;;;;;7.47;2.03;;;;;;;;;;5063103;28;20045;-69
2024/01/05 03:13:47;;;;;;;5.22;2.40;;;;;;;;;;5056450;28;20063;-69
2024/01/05 03:16:15;;;;;;;5.80;1.80;;;;;;;;;;5053298;28;20552;-68
2024/01/05 03:18:42;;;;;;;4.28;1.63;;;;;;;;;;5056549;28;20139;-69
2024/01/05 03:21:08;;;;;;;7.82;2.10;;;;;;;;;;5059378;28;20047;-69
2024/01/05 03:23:34;;;;;;;6.32;1.95;;;;;;;;;;5056871;28;20492;-70
2024/01/05 03:26:01;;;;;;;8.13;2.00;;;;;;;;;;5060772;28;20055;-69
2024/01/05 03:28:30;;;;;;;3.97;1.65;;;;;;;;;;5059479;28;20048;-69
2024/01/05 03:30:56;;;;;;;6.40;2.38;;;;;;;;;;5054366;28;20044;-69
2024/01/05 03:33:24;;;;;;;8.27;2.00;;;;;;;;;;5064679;28;20056;-69
2024/01/05 03:35:53;;;;;;;2.88;1.50;;;;;;;;;;5066354;28;20071;-69
2024/01/05 03:38:19;;;;;;;5.60;1.58;;;;;;;;;;5056800;28;20055;-69
2024/01/05 03:40:45;;;;;;;7.20;1.90;;;;;;;;;;5067348;28;20048;-69
2024/01/05 03:43:12;;;;;;;8.65;2.20;;;;;;;;;;5061857;28;20057;-69
2024/01/05 03:45:38;;;;;;;4.15;1.90;;;;;;;;;;5061338;28;20398;-69
2024/01/05 03:48:05;;;;;;;6.00;2.00;;;;;;;;;;5059601;28;20064;-69
2024/01/05 03:50:33;;;;;;;5.63;2.00;;;;;;;;;;5069363;28;20165;-69
2024/01/05 03:52:59;;;;;;;4.95;1.67;;;;;;;;;;5056666;28;20045;-69
2024/01/05 03:55:29;;;;;;;5.63;1.70;;;;;;;;;;5064259;28;20072;-69
2024/01/05 03:57:55;;;;;;;9.82;3.58;;;;;;;;;;5058569;28;20073;-69
2024/01/05 04:00:22;;;;;;;12.00;3.88;;;;;;;;;;5066257;28;20155;-69
2024/01/05 04:02:48;;;;;;;16.52;6.82;;;;;;;;;;5066607;28;20044;-69
2024/01/05 04:05:15;;;;;;;25.98;8.93;;;;;;;;;;5056852;28;20049;-69
2024/01/05 04:07:42;;;;;;;8.90;2.60;;;;;;;;;;5064599;28;20060;-69
2024/01/05 04:10:09;;;;;;;3.55;2.00;;;;;;;;;;5062680;28;20048;-69
2024/01/05 04:12:35;;;;;;;4.63;2.00;;;;;;;;;;5057967;28;20493;-69
2024/01/05 04:15:02;;;;;;;4.28;1.77;;;;;;;;;;5058747;28;20055;-69
2024/01/05 04:17:28;;;;;;;5.30;2.10;;;;;;;;;;5057639;28;20080;-69
2024/01/05 04:19:55;;;;;;;5.78;1.30;;;;;;;;;;5060846;28;20123;-69
2024/01/05 04:22:21;;;;;;;6.93;1.80;;;;;;;;;;5065888;28;20127;-69
2024/01/05 04:24:49;;;;;;;7.30;1.75;;;;;;;;;;5059706;28;20087;-69
2024/01/05 04:27:15;;;;;;;3.47;1.60;;;;;;;;;;5054460;28;20055;-69
2024/01/05 04:29:42;;;;;;;9.90;1.67;;;;;;;;;;5061436;28;20136;-69
2024/01/05 04:32:09;;;;;;;3.60;1.65;;;;;;;;;;5053937;28;20128;-69
2024/01/05 04:34:35;;;;;;;5.88;1.45;;;;;;;;;;5055001;28;20040;-69
2024/01/05 04:37:01;;;;;;;4.72;1.70;;;;;;;;;;5068333;28;20095;-69
2024/01/05 04:39:28;;;;;;;4.03;2.10;;;;;;;;;;5063079;28;20055;-69
2024/01/05 04:41:56;;;;;;;5.80;2.08;;;;;;;;;;5059391;28;20532;-69
2024/01/05 04:44:22;;;;;;;6.18;1.80;;;;;;;;;;5058555;28;20045;-69
2024/01/05 04:46:48;;;;;;;4.90;2.38;;;;;;;;;;5056223;28;20052;-69
2024/01/05 04:49:15;;;;;;;7.85;2.53;;;;;;;;;;5062967;28;20045;-68
2024/01/05 04:51:41;;;;;;;6.22;3.20;;;;;;;;;;5052100;28;20052;-68
2024/01/05 04:54:07;;;;;;;7.97;2.20;;;;;;;;;;5050828;28;20094;-69
2024/01/05 04:56:34;;;;;;;8.27;3.20;;;;;;;;;;5062013;28;20051;-69
2024/01/05 04:59:01;;;;;;;4.57;2.00;;;;;;;;;;5064575;28;20510;-69
2024/01/05 05:01:28;;;;;;;5.13;2.05;;;;;;;;;;5070995;28;20056;-70
2024/01/05 05:03:54;;;;;;;7.97;2.42;;;;;;;;;;5065303;28;20496;-69
2024/01/05 05:06:21;;;;;;;6.07;1.85;;;;;;;;;;5062392;28;20412;-69
2024/01/05 05:08:47;;;;;;;7.25;2.33;;;;;;;;;;5062491;28;20071;-68
2024/01/05 05:11:13;;;;;;;3.42;1.40;;;;;;;;;;5068174;28;20041;-69
2024/01/05 05:13:40;;;;;;;6.70;1.75;;;;;;;;;;5052787;28;20130;-69
2024/01/05 05:16:08;;;;;;;6.60;1.60;;;;;;;;;;5053007;28;20055;-69
2024/01/05 05:18:34;;;;;;;4.85;2.10;;;;;;;;;;5056674;28;20047;-69
2024/01/05 05:21:00;;;;;;;2.33;1.25;;;;;;;;;;5067850;28;20051;-69
2024/01/05 05:23:27;;;;;;;6.18;1.52;;;;;;;;;;5057360;28;20045;-69
2024/01/05 05:25:53;;;;;;;4.18;1.40;;;;;;;;;;5056276;28;20405;-69
2024/01/05 05:28:20;;;;;;;3.13;1.30;;;;;;;;;;5058713;28;20041;-69
2024/01/05 05:30:46;;;;;;;2.88;1.40;;;;;;;;;;5066248;28;20045;-69
2024/01/05 05:33:14;;;;;;;8.38;1.60;;;;;;;;;;5070138;28;20510;-68
2024/01/05 05:35:40;;;;;;;5.75;1.63;;;;;;;;;;5056469;28;20041;-69
2024/01/05 05:38:06;;;;;;;3.42;1.75;;;;;;;;;;5057188;28;20050;-70
2024/01/05 05:40:33;;;;;;;3.97;1.25;;;;;;;;;;5056275;28;20041;-69
2024/01/05 05:42:59;;;;;;;3.17;1.42;;;;;;;;;;5058345;28;20051;-69
2024/01/05 05:45:26;;;;;;;8.55;2.00;;;;;;;;;;5052620;28;20483;-69
2024/01/05 05:47:52;;;;;;;6.00;1.67;;;;;;;;;;5050347;28;20041;-69
2024/01/05 05:50:20;;;;;;;5.35;2.38;;;;;;;;;;5062544;28;20052;-69
2024/01/05 05:52:47;;;;;;;5.32;1.50;;;;;;;;;;5062987;28;20044;-69
2024/01/05 05:55:13;;;;;;;4.18;1.58;;;;;;;;;;5055259;28;20485;-69
2024/01/05 05:57:40;;;;;;;9.27;2.10;;;;;;;;;;5060594;28;20055;-69
2024/01/05 06:00:08;;;;;;;4.25;1.50;;;;;;;;;;5063864;28;20090;-69
2024/01/05 06:02:34;;;;;;;3.38;1.30;;;;;;;;;;5065797;28;20109;-69
2024/01/05 06:05:01;;;;;;;3.78;1.30;;;;;;;;;;5058180;28;20230;-68
2024/01/05 06:07:28;;;;;;;6.65;1.75;;;;;;;;;;5071139;28;20493;-69
2024/01/05 06:09:55;;;;;;;5.40;1.30;;;;;;;;;;5063504;28;20076;-68
2024/01/05 06:12:21;;;;;;;4.35;1.52;;;;;;;;;;5068537;28;20102;-69
2024/01/05 06:14:48;;;;;;;5.50;1.58;;;;;;;;;;5060129;28;20591;-69
2024/01/05 06:17:14;;;;;;;2.80;1.10;;;;;;;;;;5059280;28;20041;-69
2024/01/05 06:19:40;;;;;;;5.03;1.45;;;;;;;;;;5060397;28;20047;-69
2024/01/05 06:22:07;;;;;;;2.55;1.17;;;;;;;;;;5065627;28;20045;-69
2024/01/05 06:24:35;;;;;;;5.25;1.25;;;;;;;;;;5056895;28;20146;-68
2024/01/05 06:27:01;;;;;;;3.83;1.48;;;;;;;;;;5060931;28;20041;-68
2024/01/05 06:29:28;;;;;;;6.00;1.67;;;;;;;;;;5062413;28;20053;-68
2024/01/05 06:31:54;;;;;;;4.70;1.65;;;;;;;;;;5070620;28;20131;-68
2024/01/05 06:34:21;;;;;;;4.90;1.23;;;;;;;;;;5063314;28;20052;-68
2024/01/05 06:36:47;;;;;;;4.57;1.15;;;;;;;;;;5066771;28;20068;-69
2024/01/05 06:39:13;;;;;;;5.03;1.20;;;;;;;;;;5055900;28;20520;-68
2024/01/05 06:41:41;;;;;;;4.72;1.70;;;;;;;;;;5065550;28;20053;-68
2024/01/05 06:44:07;;;;;;;4.55;1.40;;;;;;;;;;5065062;28;20041;-68
2024/01/05 06:46:34;;;;;;;3.25;1.23;;;;;;;;;;5063990;28;20136;-69
2024/01/05 06:49:00;;;;;;;2.47;1.10;;;;;;;;;;5058737;28;20476;-68
2024/01/05 06:51:29;;;;;;;5.30;1.63;;;;;;;;;;5069431;28;20131;-69
2024/01/05 06:53:56;;;;;;;3.13;1.45;;;;;;;;;;5063031;28;20061;-68
2024/01/05 06:56:23;;;;;;;3.83;1.20;;;;;;;;;;5061297;28;20500;-69
2024/01/05 06:58:51;;;;;;;5.03;1.55;;;;;;;;;;5065071;28;20052;-69
2024/01/05 07:01:17;;;;;;;4.50;1.42;;;;;;;;;;5060736;28;20071;-68
2024/01/05 07:03:44;;;;;;;3.92;1.75;;;;;;;;;;5066343;28;20507;-69
2024/01/05 07:06:11;;;;;;;2.30;1.20;;;;;;;;;;5061519;28;20442;-68
2024/01/05 07:08:37;;;;;;;3.25;1.40;;;;;;;;;;5059570;28;20048;-68
2024/01/05 07:11:04;;;;;;;2.67;1.35;;;;;;;;;;5064664;28;20054;-68
2024/01/05 07:13:30;;;;;;;4.32;0.90;;;;;;;;;;5061713;28;20401;-68
2024/01/05 07:15:58;;;;;;;7.82;1.50;;;;;;;;;;5063955;28;20055;-68
2024/01/05 07:18:24;;;;;;;8.75;1.38;;;;;;;;;;5067288;28;20415;-68
2024/01/05 07:20:51;;;;;;;4.82;1.48;;;;;;;;;;5058271;28;20049;-69
2024/01/05 07:23:17;;;;;;;2.90;1.20;;;;;;;;;;5059025;28;20132;-69
2024/01/05 07:25:43;;;;;;;4.25;1.30;;;;;;;;;;5064886;28;20484;-68
2024/01/05 07:28:10;;;;;;;5.10;1.25;;;;;;;;;;5061000;28;20055;-68
2024/01/05 07:30:37;;;;;;;3.00;1.40;;;;;;;;;;5063749;28;20049;-68
2024/01/05 07:33:05;;;;;;;3.80;1.30;;;;;;;;;;5062309;28;20415;-68
2024/01/05 07:35:31;;;;;;;3.63;1.42;;;;;;;;;;5055226;28;20485;-68
2024/01/05 07:37:58;;;;;;;4.13;1.60;;;;;;;;;;5063448;28;20423;-69
2024/01/05 07:40:24;;;;;;;4.63;1.10;;;;;;;;;;5055473;28;20045;-68
2024/01/05 07:42:50;;;;;;;5.15;1.20;;;;;;;;;;5068159;28;20058;-69
2024/01/05 07:45:17;;;;;;;1.92;1.10;;;;;;;;;;5071283;28;20044;-68
2024/01/05 07:47:43;;;;;;;3.92;1.27;;;;;;;;;;5059628;28;20052;-68
2024/01/05 07:50:11;;;;;;;7.63;1.30;;;;;;;;;;5057316;28;20053;-68
2024/01/05 07:52:38;;;;;;;4.45;1.30;;;;;;;;;;5060357;28;20052;-68
2024/01/05 07:55:04;;;;;;;4.93;1.50;;;;;;;;;;5059527;28;20072;-68
2024/01/05 07:57:31;;;;;;;4.88;1.60;;;;;;;;;;5057617;28;20135;-68
2024/01/05 07:59:57;;;;;;;5.72;1.60;;;;;;;;;;5058767;28;20052;-69
2024/01/05 08:02:24;;;;;;;5.53;1.63;;;;;;;;;;5060351;28;20044;-68
2024/01/05 08:04:50;;;;;;;5.20;1.80;;;;;;;;;;5057631;28;20052;-69
2024/01/05 08:07:18;;;;;;;4.03;1.65;;;;;;;;;;5063300;28;20044;-68
2024/01/05 08:09:45;;;;;;;4.70;1.75;;;;;;;;;;5065857;28;20053;-69
2024/01/05 08:12:11;;;;;;;3.80;1.85;;;;;;;;;;5063446;28;20044;-68
2024/01/05 08:14:38;;;;;;;8.70;2.03;;;;;;;;;;5059955;28;20515;-68
2024/01/05 08:17:04;;;;;;;9.02;2.08;;;;;;;;;;5055383;28;20053;-68
2024/01/05 08:19:31;;;;;;;7.70;1.80;;;;;;;;;;5068169;28;20148;-68
2024/01/05 08:21:57;;;;;;;2.63;1.58;;;;;;;;;;5061863;28;20047;-69
2024/01/05 08:24:25;;;;;;;4.38;2.20;;;;;;;;;;5054073;28;20041;-68
2024/01/05 08:26:52;;;;;;;4.22;1.30;;;;;;;;;;5052972;28;20524;-68
2024/01/05 08:29:18;;;;;;;6.07;1.35;;;;;;;;;;5057821;28;20044;-68
2024/01/05 08:31:45;;;;;;;5.15;1.55;;;;;;;;;;5060896;28;20041;-68
2024/01/05 08:34:11;;;;;;;6.50;1.40;;;;;;;;;;5059399;28;20424;-68
2024/01/05 08:36:37;;;;;;;2.60;1.30;;;;;;;;;;5059371;28;20049;-69
2024/01/05 08:39:05;;;;;;;8.07;1.50;;;;;;;;;;5051312;28;20051;-68
2024/01/05 08:41:32;;;;;;;3.75;0.98;;;;;;;;;;5051082;28;20515;-68
2024/01/05 08:43:59;;;;;;;3.88;1.10;;;;;;;;;;5056191;28;20044;-69
2024/01/05 08:46:27;;;;;;;5.32;1.52;;;;;;;;;;5056204;28;20053;-69
2024/01/05 08:48:53;;;;;;;4.80;1.40;;;;;;;;;;5054281;28;20045;-68
2024/01/05 08:51:20;;;;;;;3.97;1.40;;;;;;;;;;5043816;28;20151;-68
2024/01/05 08:53:46;;;;;;;2.50;1.30;;;;;;;;;;5053960;28;20047;-68
2024/01/05 08:56:13;;;;;;;3.28;1.17;;;;;;;;;;5069143;28;20518;-68
2024/01/05 08:58:41;;;;;;;3.45;1.08;;;;;;;;;;5055877;28;20497;-68
2024/01/05 09:01:07;;;;;;;2.20;1.23;;;;;;;;;;5057052;28;20061;-68
2024/01/05 09:03:33;;;;;;;2.80;1.20;;;;;;;;;;5066575;28;20139;-68
2024/01/05 09:06:00;;;;;;;8.35;2.15;;;;;;;;;;5054469;28;20057;-68
2024/01/05 09:08:26;;;;;;;3.38;1.13;;;;;;;;;;5055163;28;20041;-68
2024/01/05 09:10:53;;;;;;;1.92;0.70;;;;;;;;;;5061446;28;20051;-68
2024/01/05 09:13:20;;;;;;;1.70;0.90;;;;;;;;;;5067447;28;20059;-68
2024/01/05 09:15:47;;;;;;;3.35;0.82;;;;;;;;;;5059096;28;20055;-68
2024/01/05 09:18:14;;;;;;;1.38;0.90;;;;;;;;;;5055143;28;20408;-68
2024/01/05 09:20:40;;;;;;;2.92;1.15;;;;;;;;;;5062065;28;20048;-68
2024/01/05 09:23:07;;;;;;;1.52;0.75;;;;;;;;;;5066911;28;20079;-68
2024/01/05 09:25:33;;;;;;;2.47;1.00;;;;;;;;;;5054274;28;20492;-68
2024/01/05 09:28:00;;;;;;;4.22;0.95;;;;;;;;;;5056388;28;20044;-68
2024/01/05 09:30:26;;;;;;;1.60;0.80;;;;;;;;;;5063994;28;20412;-70
2024/01/05 09:32:54;;;;;;;4.18;0.77;;;;;;;;;;5058377;28;20045;-73
2024/01/05 09:35:21;;;;;;;2.00;0.70;;;;;;;;;;5057054;28;20416;-71
2024/01/05 09:37:48;;;;;;;2.42;0.70;;;;;;;;;;5054944;28;20069;-72
2024/01/05 09:40:14;;;;;;;3.85;0.75;;;;;;;;;;5060237;28;20055;-70
2024/01/05 09:42:41;;;;;;;1.20;0.70;;;;;;;;;;5063776;28;20485;-72
2024/01/05 09:45:10;;;;;;;2.90;0.68;;;;;;;;;;5063760;28;20496;-73
2024/01/05 09:47:36;;;;;;;1.23;1.10;;;;;;;;;;5059869;28;20489;-70
2024/01/05 09:50:05;;;;;;;1.73;0.90;;;;;;;;;;5061520;28;20059;-70
2024/01/05 09:52:31;;;;;;;2.55;1.10;;;;;;;;;;5056052;28;20087;-72
2024/01/05 09:54:58;;;;;;;3.42;0.90;;;;;;;;;;5068354;28;20420;-71
2024/01/05 09:57:25;;;;;;;1.88;0.80;;;;;;;;;;5060512;28;20137;-70
2024/01/05 09:59:51;;;;;;;3.50;0.90;;;;;;;;;;5072333;28;20056;-70
2024/01/05 10:02:25;;;;;;;5.38;0.95;;;;;;;;;;5061620;28;20055;-70
2024/01/05 10:04:52;;;;;;;1.83;0.98;;;;;;;;;;5069936;28;20049;-72
2024/01/05 10:07:19;;;;;;;2.58;0.75;;;;;;;;;;5058647;28;20041;-73
2024/01/05 10:09:50;;;;;;;3.28;0.98;;;;;;;;;;5055357;28;20049;-71
2024/01/05 10:12:17;;;;;;;2.47;0.80;;;;;;;;;;5063899;28;20048;-72
2024/01/05 10:14:44;;;;;;;1.88;0.60;;;;;;;;;;5055250;28;20051;-73
2024/01/05 10:17:11;;;;;;;1.75;0.80;;;;;;;;;;5061480;28;20493;-71
2024/01/05 10:19:39;;;;;;;2.78;0.70;;;;;;;;;;5058579;28;20595;-70
2024/01/05 10:22:09;;;;;;;3.45;1.20;;;;;;;;;;5052699;28;20045;-72
2024/01/05 10:24:36;;;;;;;2.95;0.98;;;;;;;;;;5058270;28;20539;-71
2024/01/05 10:27:04;;;;;;;0.90;0.70;;;;;;;;;;5068141;28;20053;-71
2024/01/05 10:29:30;;;;;;;2.95;1.08;;;;;;;;;;5057920;28;20087;-72
2024/01/05 10:32:09;;;;;;;2.30;0.70;;;;;;;;;;5065576;28;20049;-71
2024/01/05 10:34:35;;;;;;;1.02;0.70;;;;;;;;;;5061804;28;20044;-72
2024/01/05 10:37:03;;;;;;;2.45;1.00;;;;;;;;;;5056914;28;20504;-74
2024/01/05 10:39:30;;;;;;;1.15;0.80;;;;;;;;;;5065510;28;20053;-70
2024/01/05 10:42:14;;;;;;;2.03;0.57;;;;;;;;;;5059463;28;20063;-73
2024/01/05 10:44:41;;;;;;;1.58;0.60;;;;;;;;;;5059871;28;20051;-71
2024/01/05 10:47:07;;;;;;;2.20;0.70;;;;;;;;;;5053838;28;20489;-70
2024/01/05 10:49:34;;;;;;;1.83;0.70;;;;;;;;;;5054698;28;20307;-70
2024/01/05 10:52:02;;;;;;;1.17;0.80;;;;;;;;;;5060562;28;20049;-70
2024/01/05 10:54:30;;;;;;;1.95;0.60;;;;;;;;;;5054337;28;20564;-70
2024/01/05 10:56:59;;;;;;;1.75;0.95;;;;;;;;;;5048798;28;20048;-74
2024/01/05 10:59:25;;;;;;;1.35;0.80;;;;;;;;;;5056509;28;20049;-73
2024/01/05 11:01:51;;;;;;;1.27;0.65;;;;;;;;;;5054945;28;20053;-70
2024/01/05 11:04:21;;;;;;;1.15;0.80;;;;;;;;;;5058204;28;20052;-70
2024/01/05 11:06:47;;;;;;;0.60;0.60;;;;;;;;;;5065749;28;20428;-71
2024/01/05 11:09:18;;;;;;;1.63;0.60;;;;;;;;;;5066591;28;20040;-70
2024/01/05 11:11:49;;;;;;;3.38;0.90;;;;;;;;;;5064183;28;20419;-70
2024/01/05 11:14:30;;;;;;;2.80;0.70;;;;;;;;;;5054690;28;20056;-71
2024/01/05 11:17:14;;;;;;;1.13;0.70;;;;;;;;;;5050003;28;20044;-70
2024/01/05 11:19:53;;;;;;;1.23;0.60;;;;;;;;;;5055669;28;20054;-70
2024/01/05 11:22:22;;;;;;;1.33;0.90;;;;;;;;;;5065928;28;20055;-71
2024/01/05 11:24:49;;;;;;;0.65;0.65;;;;;;;;;;5059833;28;20547;-71
2024/01/05 11:27:28;;;;;;;0.55;0.50;;;;;;;;;;5060296;28;20294;-71
2024/01/05 11:29:57;;;;;;;3.08;0.75;;;;;;;;;;5062233;28;20041;-70
2024/01/05 11:32:32;;;;;;;0.90;0.60;;;;;;;;;;5058620;28;20390;-73
2024/01/05 11:35:00;;;;;;;2.60;1.50;;;;;;;;;;5057616;28;20044;-70
2024/01/05 11:37:28;;;;;;;0.70;0.70;;;;;;;;;;5059154;28;20098;-71
2024/01/05 11:39:54;;;;;;;1.75;0.90;;;;;;;;;;5061808;28;20131;-71
2024/01/05 11:42:28;;;;;;;2.15;1.00;;;;;;;;;;5066483;28;20511;-71
2024/01/05 11:44:56;;;;;;;1.83;1.00;;;;;;;;;;5062242;28;20119;-73
2024/01/05 11:47:40;;;;;;;1.95;1.00;;;;;;;;;;5063207;28;20559;-72
2024/01/05 11:50:23;;;;;;;3.38;1.00;;;;;;;;;;5062210;28;20501;-71
2024/01/05 11:53:04;;;;;;;2.85;0.98;;;;;;;;;;5062493;28;20041;-70
2024/01/05 11:55:35;;;;;;;1.20;0.93;;;;;;;;;;5064919;28;20053;-73
2024/01/05 11:58:02;;;;;;;2.20;1.20;;;;;;;;;;5067257;28;20053;-70
2024/01/05 12:00:30;;;;;;;1.42;0.90;;;;;;;;;;5065477;28;20049;-71
2024/01/05 12:03:00;;;;;;;3.00;1.05;;;;;;;;;;5055407;28;20128;-70
2024/01/05 12:05:26;;;;;;;2.20;0.80;;;;;;;;;;5065334;28;20041;-71
2024/01/05 12:07:55;;;;;;;1.75;0.73;;;;;;;;;;5068421;28;20068;-69
2024/01/05 12:10:23;;;;;;;1.40;0.60;;;;;;;;;;5066783;28;20049;-72
2024/01/05 12:12:51;;;;;;;2.22;0.73;;;;;;;;;;5060509;28;20051;-71
2024/01/05 12:15:17;;;;;;;2.28;1.13;;;;;;;;;;5054647;28;20408;-71
2024/01/05 12:17:45;;;;;;;3.72;0.90;;;;;;;;;;5066528;28;20040;-71
2024/01/05 12:20:12;;;;;;;1.63;0.68;;;;;;;;;;5054557;28;20071;-70
2024/01/05 12:22:38;;;;;;;1.17;0.73;;;;;;;;;;5058150;28;20054;-70
2024/01/05 12:25:05;;;;;;;3.13;0.90;;;;;;;;;;5054829;28;20053;-72
2024/01/05 12:27:35;;;;;;;1.38;0.65;;;;;;;;;;5059557;28;20044;-71
2024/01/05 12:30:02;;;;;;;1.80;0.68;;;;;;;;;;5071605;28;20050;-69
2024/01/05 12:32:31;;;;;;;2.30;0.88;;;;;;;;;;5062543;28;20071;-69
2024/01/05 12:34:58;;;;;;;2.33;0.90;;;;;;;;;;5066197;28;20045;-71
2024/01/05 12:37:25;;;;;;;0.77;0.60;;;;;;;;;;5066030;28;20052;-73
2024/01/05 12:39:51;;;;;;;2.70;0.82;;;;;;;;;;5061318;28;20519;-70
2024/01/05 12:42:17;;;;;;;3.67;1.33;;;;;;;;;;5058708;28;20501;-71
2024/01/05 12:44:44;;;;;;;2.30;0.60;;;;;;;;;;5060609;28;20070;-68
2024/01/05 12:47:11;;;;;;;0.85;0.70;;;;;;;;;;5065172;28;20459;-70
2024/01/05 12:49:38;;;;;;;1.00;0.70;;;;;;;;;;5067563;28;20048;-72
2024/01/05 12:52:07;;;;;;;1.60;0.60;;;;;;;;;;5065047;28;20051;-70
2024/01/05 12:54:40;;;;;;;4.28;1.75;;;;;;;;;;5059115;28;20466;-71
2024/01/05 12:57:08;;;;;;;1.27;0.63;;;;;;;;;;5056125;28;20588;-71
2024/01/05 12:59:35;;;;;;;7.50;1.35;;;;;;;;;;5061747;28;20052;-70
2024/01/05 13:02:03;;;;;;;1.92;0.80;;;;;;;;;;5061139;28;20041;-70
2024/01/05 13:04:30;;;;;;;1.83;0.90;;;;;;;;;;5063129;28;20539;-72
2024/01/05 13:06:56;;;;;;;1.38;0.85;;;;;;;;;;5058546;28;20063;-72
2024/01/05 13:09:24;;;;;;;1.70;0.80;;;;;;;;;;5055558;28;20049;-71
2024/01/05 13:11:51;;;;;;;1.08;0.77;;;;;;;;;;5061912;28;20052;-70
2024/01/05 13:14:18;;;;;;;2.47;0.90;;;;;;;;;;5065048;28;20057;-70
2024/01/05 13:16:45;;;;;;;3.08;0.85;;;;;;;;;;5059922;28;20079;-70
2024/01/05 13:19:11;;;;;;;3.20;1.00;;;;;;;;;;5058765;28;20052;-70
2024/01/05 13:21:38;;;;;;;2.65;0.70;;;;;;;;;;5064388;28;20048;-73
2024/01/05 13:24:04;;;;;;;2.58;1.35;;;;;;;;;;5053090;28;20423;-71
2024/01/05 13:26:32;;;;;;;4.63;1.27;;;;;;;;;;5055610;28;20041;-74
2024/01/05 13:28:58;;;;;;;3.00;0.80;;;;;;;;;;5050758;28;20041;-71
2024/01/05 13:31:25;;;;;;;2.70;1.10;;;;;;;;;;5061770;28;20053;-71
2024/01/05 13:33:51;;;;;;;3.05;0.80;;;;;;;;;;5057667;28;20068;-70
2024/01/05 13:36:18;;;;;;;3.55;1.02;;;;;;;;;;5056150;28;20124;-70
2024/01/05 13:38:44;;;;;;;2.65;1.10;;;;;;;;;;5059625;28;20059;-70
2024/01/05 13:41:10;;;;;;;2.80;1.08;;;;;;;;;;5051824;28;20127;-72
2024/01/05 13:43:38;;;;;;;4.32;1.13;;;;;;;;;;5055084;28;20079;-71
2024/01/05 13:46:06;;;;;;;2.97;0.95;;;;;;;;;;5063056;28;20040;-73
2024/01/05 13:48:32;;;;;;;2.80;1.13;;;;;;;;;;5054891;28;20048;-70
2024/01/05 13:50:59;;;;;;;2.03;0.88;;;;;;;;;;5060583;28;20515;-71
2024/01/05 13:53:25;;;;;;;4.32;1.17;;;;;;;;;;5062578;28;20041;-71
2024/01/05 13:55:51;;;;;;;1.63;0.98;;;;;;;;;;5053590;28;20052;-71
2024/01/05 13:58:19;;;;;;;1.98;1.08;;;;;;;;;;5068806;28;20040;-70
2024/01/05 14:00:49;;;;;;;3.72;1.17;;;;;;;;;;5055772;28;20154;-71
2024/01/05 14:03:15;;;;;;;5.00;1.70;;;;;;;;;;5055948;28;20054;-70
2024/01/05 14:05:41;;;;;;;4.53;1.27;;;;;;;;;;5059844;28;20049;-71
2024/01/05 14:08:08;;;;;;;3.05;1.45;;;;;;;;;;5057366;28;20052;-71
2024/01/05 14:10:34;;;;;;;2.58;1.10;;;;;;;;;;5057728;28;20052;-70
2024/01/05 14:13:01;;;;;;;2.28;1.13;;;;;;;;;;5059892;28;20511;-69
2024/01/05 14:15:27;;;;;;;3.08;1.35;;;;;;;;;;5053424;28;20052;-71
2024/01/05 14:17:55;;;;;;;1.90;1.10;;;;;;;;;;5056935;28;20484;-71
2024/01/05 14:20:21;;;;;;;3.05;0.90;;;;;;;;;;5054918;28;20053;-72
2024/01/05 14:22:48;;;;;;;3.17;0.90;;;;;;;;;;5056781;28;20548;-70
2024/01/05 14:25:14;;;;;;;4.15;0.90;;;;;;;;;;5066159;28;20072;-71
2024/01/05 14:27:40;;;;;;;1.95;1.38;;;;;;;;;;5061097;28;20048;-70
2024/01/05 14:30:08;;;;;;;1.52;0.90;;;;;;;;;;5066985;28;20129;-70
2024/01/05 14:32:34;;;;;;;3.65;1.33;;;;;;;;;;5060215;28;20044;-70
2024/01/05 14:35:04;;;;;;;3.95;1.20;;;;;;;;;;5054706;28;20104;-73
2024/01/05 14:37:31;;;;;;;3.47;1.10;;;;;;;;;;5065376;28;20102;-75
2024/01/05 14:39:57;;;;;;;1.80;1.00;;;;;;;;;;5066865;28;20041;-70
2024/01/05 14:42:24;;;;;;;3.25;1.40;;;;;;;;;;5066047;28;20076;-73